createdAt,value
2019-05-23T00:00:58.569Z,8.55
2019-05-23T00:06:24.511Z,8.78
2019-05-23T00:12:04.524Z,8.47
2019-05-23T00:17:25.898Z,8.33
2019-05-23T00:22:32.569Z,8.00
2019-05-23T00:27:40.088Z,8.18
2019-05-23T00:32:47.736Z,8.60
2019-05-23T00:37:52.979Z,8.58
2019-05-23T00:42:59.547Z,8.90
2019-05-23T00:48:06.194Z,8.85
2019-05-23T00:53:11.927Z,8.45
2019-05-23T00:58:19.282Z,8.53
2019-05-23T01:03:28.323Z,8.10
2019-05-23T01:08:35.360Z,8.45
2019-05-23T01:13:40.664Z,8.50
2019-05-23T01:18:46.352Z,8.73
2019-05-23T01:23:58.058Z,8.03
2019-05-23T01:29:04.174Z,7.92
2019-05-23T01:34:12.528Z,8.78
2019-05-23T01:39:19.189Z,8.30
2019-05-23T01:44:26.711Z,8.35
2019-05-23T01:49:31.931Z,8.50
2019-05-23T01:54:38.362Z,8.98
2019-05-23T01:59:45.321Z,9.10
2019-05-23T02:04:51.421Z,8.95
2019-05-23T02:09:56.862Z,9.20
2019-05-23T02:15:06.270Z,8.85
2019-05-23T02:20:14.107Z,9.15
2019-05-23T02:25:21.551Z,8.70
2019-05-23T02:30:34.588Z,8.90
2019-05-23T02:35:36.964Z,9.05
2019-05-23T02:41:05.384Z,8.40
2019-05-23T02:46:19.762Z,8.77
2019-05-23T02:51:29.314Z,8.55
2019-05-23T02:56:38.730Z,8.75
2019-05-23T03:02:15.835Z,8.05
2019-05-23T03:07:25.750Z,8.43
2019-05-23T03:12:32.945Z,8.57
2019-05-23T03:17:43.010Z,8.75
2019-05-23T03:22:51.066Z,8.58
2019-05-23T03:27:57.557Z,8.33
2019-05-23T03:33:05.904Z,7.63
2019-05-23T03:38:13.053Z,8.43
2019-05-23T03:43:19.080Z,8.20
2019-05-23T03:48:28.441Z,8.08
2019-05-23T03:53:35.871Z,8.28
2019-05-23T03:58:41.772Z,8.50
2019-05-23T04:03:48.831Z,8.05
2019-05-23T04:08:54.804Z,9.40
2019-05-23T04:14:00.087Z,8.80
2019-05-23T04:19:06.433Z,8.93
2019-05-23T04:24:11.974Z,8.23
2019-05-23T04:29:17.431Z,8.83
2019-05-23T04:34:22.748Z,8.53
2019-05-23T04:39:30.629Z,8.80
2019-05-23T04:44:36.615Z,11.80
2019-05-23T04:49:42.408Z,10.95
2019-05-23T04:54:49.040Z,9.70
2019-05-23T04:59:55.033Z,9.90
2019-05-23T05:05:01.057Z,11.17
2019-05-23T05:10:07.010Z,11.30
2019-05-23T05:15:12.508Z,11.78
2019-05-23T05:20:18.083Z,10.43
2019-05-23T05:25:23.347Z,11.00
2019-05-23T05:30:29.796Z,11.70
2019-05-23T05:35:35.710Z,13.25
2019-05-23T05:40:42.301Z,14.95
2019-05-23T05:45:47.639Z,17.27
2019-05-23T05:50:53.290Z,17.62
2019-05-23T05:55:58.709Z,17.60
2019-05-23T06:01:06.749Z,18.12
2019-05-23T06:06:19.565Z,17.50
2019-05-23T06:11:25.357Z,17.02
2019-05-23T06:16:30.775Z,17.10
2019-05-23T06:21:36.713Z,15.50
2019-05-23T06:26:44.826Z,16.07
2019-05-23T06:31:50.368Z,15.17
2019-05-23T06:36:55.595Z,16.42
2019-05-23T06:42:01.098Z,15.98
2019-05-23T06:47:07.788Z,15.60
2019-05-23T06:52:14.656Z,15.60
2019-05-23T06:57:20.884Z,15.32
2019-05-23T07:02:31.612Z,15.68
2019-05-23T07:07:35.970Z,15.08
2019-05-23T07:12:41.409Z,14.38
2019-05-23T07:17:46.763Z,15.73
2019-05-23T07:22:52.385Z,14.90
2019-05-23T07:27:58.403Z,15.50
2019-05-23T07:33:03.791Z,15.15
2019-05-23T07:38:09.014Z,14.20
2019-05-23T07:43:14.707Z,12.88
2019-05-23T07:48:20.231Z,12.53
2019-05-23T07:53:46.824Z,11.97
2019-05-23T07:58:53.627Z,12.57
2019-05-23T08:04:17.958Z,12.05
2019-05-23T08:09:09.628Z,11.50
2019-05-23T08:14:14.851Z,9.70
2019-05-23T08:19:20.497Z,9.38
2019-05-23T08:24:25.845Z,8.58
2019-05-23T08:29:31.589Z,8.28
2019-05-23T08:34:42.401Z,7.10
2019-05-23T08:39:45.875Z,7.70
2019-05-23T08:44:51.915Z,7.50
2019-05-23T08:49:57.256Z,6.97
2019-05-23T08:55:07.313Z,8.08
2019-05-23T09:00:13.428Z,7.85
2019-05-23T09:05:21.713Z,7.35
2019-05-23T09:10:27.405Z,8.33
2019-05-23T09:15:32.745Z,8.65
2019-05-23T09:20:38.714Z,8.50
2019-05-23T09:25:44.941Z,9.20
2019-05-23T09:30:50.431Z,9.43
2019-05-23T09:35:55.739Z,9.70
2019-05-23T09:41:01.221Z,10.00
2019-05-23T09:46:06.568Z,10.33
2019-05-23T09:51:12.156Z,11.83
2019-05-23T09:56:17.508Z,10.72
2019-05-23T10:01:25.062Z,11.30
2019-05-23T10:06:30.577Z,10.65
2019-05-23T10:11:36.126Z,10.20
2019-05-23T10:16:41.805Z,9.95
2019-05-23T10:21:47.216Z,10.20
2019-05-23T10:26:52.853Z,9.33
2019-05-23T10:31:58.090Z,8.77
2019-05-23T10:37:05.745Z,8.20
2019-05-23T10:42:11.104Z,8.80
2019-05-23T10:47:16.385Z,8.30
2019-05-23T10:52:21.809Z,7.42
2019-05-23T10:57:27.337Z,7.45
2019-05-23T11:02:32.825Z,7.00
2019-05-23T11:07:39.753Z,7.53
2019-05-23T11:12:45.007Z,7.20
2019-05-23T11:17:53.464Z,7.53
2019-05-23T11:22:58.029Z,8.10
2019-05-23T11:28:03.296Z,7.60
2019-05-23T11:33:09.780Z,6.90
2019-05-23T11:38:16.774Z,6.90
2019-05-23T11:43:22.030Z,7.55
2019-05-23T11:48:29.101Z,6.03
2019-05-23T11:53:34.927Z,6.10
2019-05-23T11:58:40.186Z,6.37
2019-05-23T12:03:47.433Z,5.40
2019-05-23T12:08:53.697Z,6.20
2019-05-23T12:14:02.664Z,5.28
2019-05-23T12:19:08.258Z,5.57
2019-05-23T12:24:14.985Z,5.42
2019-05-23T12:29:21.922Z,5.10
2019-05-23T12:34:27.425Z,5.40
2019-05-23T12:39:33.648Z,4.87
2019-05-23T12:44:38.892Z,5.35
2019-05-23T12:49:52.143Z,4.83
2019-05-23T12:54:57.365Z,5.35
2019-05-23T13:00:04.386Z,5.47
2019-05-23T13:05:11.826Z,5.10
2019-05-23T13:10:17.245Z,5.00
2019-05-23T13:15:23.294Z,6.85
2019-05-23T13:20:28.784Z,5.90
2019-05-23T13:25:34.198Z,4.67
2019-05-23T13:30:39.516Z,4.90
2019-05-23T13:35:45.742Z,5.00
2019-05-23T13:40:51.188Z,5.10
2019-05-23T13:45:56.733Z,5.10
2019-05-23T13:51:02.145Z,4.53
2019-05-23T13:56:07.624Z,5.85
2019-05-23T14:01:12.875Z,4.40
2019-05-23T14:06:18.210Z,10.43
2019-05-23T14:11:23.438Z,5.78
2019-05-23T14:16:30.374Z,7.15
2019-05-23T14:21:37.005Z,4.92
2019-05-23T14:26:49.766Z,4.50
2019-05-23T14:32:03.636Z,3.83
2019-05-23T14:37:17.333Z,3.87
2019-05-23T14:42:42.331Z,3.87
2019-05-23T14:53:13.105Z,3.83
2019-05-23T14:58:18.571Z,3.90
2019-05-23T15:03:25.780Z,6.00
2019-05-23T15:08:49.549Z,4.00
2019-05-23T15:13:38.556Z,10.32
2019-05-23T15:18:44.271Z,3.72
2019-05-23T15:23:50.192Z,3.80
2019-05-23T15:28:56.134Z,4.63
2019-05-23T15:34:01.748Z,3.77
2019-05-23T15:39:29.516Z,3.27
2019-05-23T15:44:35.588Z,3.47
2019-05-23T15:49:42.765Z,3.20
2019-05-23T15:54:55.965Z,3.20
2019-05-23T16:00:20.246Z,2.90
2019-05-23T16:05:26.845Z,3.60
2019-05-23T16:10:32.742Z,3.22
2019-05-23T16:15:38.008Z,3.42
2019-05-23T16:20:43.316Z,3.10
2019-05-23T16:25:48.554Z,3.40
2019-05-23T16:30:54.188Z,3.30
2019-05-23T16:36:00.410Z,3.35
2019-05-23T16:41:05.781Z,3.20
2019-05-23T16:46:11.555Z,3.10
2019-05-23T16:51:17.104Z,2.80
2019-05-23T16:56:27.959Z,2.87
2019-05-23T17:01:56.978Z,3.20
2019-05-23T17:07:02.072Z,3.45
2019-05-23T17:12:29.093Z,3.20
2019-05-23T17:18:02.938Z,3.10
2019-05-23T17:23:29.079Z,3.15
2019-05-23T17:28:37.589Z,3.40
2019-05-23T17:33:44.776Z,2.90
2019-05-23T17:38:50.633Z,3.12
2019-05-23T17:44:03.356Z,3.17
2019-05-23T17:49:10.432Z,3.00
2019-05-23T17:54:17.393Z,3.20
2019-05-23T17:59:22.753Z,3.20
2019-05-23T18:04:28.806Z,3.20
2019-05-23T18:09:35.889Z,3.00
2019-05-23T18:14:43.054Z,3.40
2019-05-23T18:19:48.405Z,3.80
2019-05-23T18:24:59.325Z,3.45
2019-05-23T18:30:01.870Z,3.50
2019-05-23T18:35:09.823Z,3.50
2019-05-23T18:40:16.586Z,3.50
2019-05-23T18:45:23.118Z,5.67
2019-05-23T18:50:28.848Z,6.87
2019-05-23T18:55:34.399Z,6.05
2019-05-23T19:01:14.006Z,4.07
2019-05-23T19:06:19.871Z,3.77
2019-05-23T19:11:25.700Z,3.83
2019-05-23T19:16:32.910Z,3.90
2019-05-23T19:21:40.048Z,3.98
2019-05-23T19:26:47.184Z,21.62
2019-05-23T19:31:54.554Z,9.00
2019-05-23T19:37:03.604Z,4.63
2019-05-23T19:42:09.724Z,4.90
2019-05-23T19:47:15.120Z,5.20
2019-05-23T19:52:21.130Z,4.70
2019-05-23T19:57:30.785Z,11.25
2019-05-23T20:02:41.870Z,19.12
2019-05-23T20:07:49.392Z,10.23
2019-05-23T20:12:54.686Z,9.18
2019-05-23T20:18:01.374Z,9.23
2019-05-23T20:23:07.446Z,48.10
2019-05-23T20:28:12.724Z,39.03
2019-05-23T20:33:19.230Z,6.90
2019-05-23T20:38:27.258Z,31.27
2019-05-23T20:43:33.163Z,8.13
2019-05-23T20:48:38.788Z,6.90
2019-05-23T20:53:44.759Z,24.65
2019-05-23T20:58:50.026Z,35.83
2019-05-23T21:03:56.438Z,6.80
2019-05-23T21:13:52.212Z,6.50
2019-05-23T21:18:57.484Z,6.78
2019-05-23T21:24:02.833Z,6.80
2019-05-23T21:29:08.084Z,7.23
2019-05-23T21:34:13.637Z,7.50
2019-05-23T21:39:19.094Z,7.42
2019-05-23T21:44:24.781Z,7.20
2019-05-23T21:49:30.124Z,7.60
2019-05-23T21:54:35.565Z,7.47
2019-05-23T21:59:40.850Z,7.55
2019-05-23T22:04:58.335Z,6.85
2019-05-23T22:10:04.566Z,7.00
2019-05-23T22:15:12.708Z,6.75
2019-05-23T22:20:18.269Z,6.45
2019-05-23T22:25:33.662Z,6.20
2019-05-23T22:30:39.728Z,6.60
2019-05-23T22:35:45.393Z,6.87
2019-05-23T22:40:50.820Z,7.13
2019-05-23T22:45:57.169Z,7.37
2019-05-23T22:51:02.867Z,6.87
2019-05-23T22:56:09.262Z,7.28
2019-05-23T23:01:16.673Z,7.35
2019-05-23T23:06:23.227Z,8.30
2019-05-23T23:11:28.907Z,8.18
2019-05-23T23:16:34.360Z,6.97
2019-05-23T23:21:39.597Z,7.22
2019-05-23T23:26:44.998Z,7.23
2019-05-23T23:31:50.607Z,6.80
2019-05-23T23:36:55.877Z,7.53
2019-05-23T23:42:01.156Z,7.47
2019-05-23T23:47:24.894Z,7.20
2019-05-23T23:52:48.000Z,7.25
2019-05-23T23:58:02.214Z,6.87
